Terminal Aerodrome Forecast
Issued by NWS Cleveland, OH

Home | Current Version | Previous Version | Graphics & Text | Print | Product List | Glossary On
Versions: 1 2 3 4 5 6 7 8 9 10 11 12 13 14 15 16 17 18 19 20 21
140
FTUS41 KCLE 181505 AAB
TAFCLE
TAF AMD
KCLE 181505Z 1815/1918 12007KT P6SM SCT060
     FM190000 VRB03KT P6SM SKC
     FM191100 20003KT P6SM FEW040 SCT200=

USA.gov is the U.S. government's official web portal to all federal, state and local government web resources and services.